createdAt,value
2023-01-29T01:31:04.343Z,101825
2023-01-29T01:36:52.637Z,101827
2023-01-29T01:42:42.597Z,101834
2023-01-29T01:48:33.753Z,101833
2023-01-29T01:54:24.001Z,101837
2023-01-29T02:00:14.059Z,101834
2023-01-29T02:06:08.199Z,101827
2023-01-29T02:11:58.310Z,101826
2023-01-29T02:17:50.011Z,101815
2023-01-29T02:23:39.849Z,101815
2023-01-29T02:29:31.839Z,101811
2023-01-29T02:35:21.604Z,101811
2023-01-29T02:41:11.709Z,101810
2023-01-29T02:47:03.598Z,101818
2023-01-29T02:52:53.717Z,101806
2023-01-29T02:58:44.615Z,101815
2023-01-29T03:04:36.145Z,101829
2023-01-29T03:10:26.571Z,101831
2023-01-29T03:16:16.528Z,101825
2023-01-29T03:22:07.170Z,101833
2023-01-29T03:27:57.685Z,101838
2023-01-29T03:33:47.674Z,101840
2023-01-29T03:39:39.745Z,101862
2023-01-29T03:45:29.490Z,101870
2023-01-29T03:51:20.188Z,101878
2023-01-29T03:57:10.651Z,101870
2023-01-29T04:03:01.479Z,101837
2023-01-29T04:08:53.712Z,101834
2023-01-29T04:14:43.371Z,101825
2023-01-29T04:20:34.430Z,101798
2023-01-29T04:26:24.381Z,101812
2023-01-29T04:32:14.497Z,101829
2023-01-29T04:38:02.952Z,101817
2023-01-29T04:43:53.136Z,101808
2023-01-29T04:49:43.406Z,101804
2023-01-29T04:55:34.477Z,101800
2023-01-29T05:01:25.450Z,101795
2023-01-29T05:08:24.469Z,101795
2023-01-29T05:14:13.668Z,101818
2023-01-29T05:20:03.142Z,101819
2023-01-29T05:25:53.689Z,101799
2023-01-29T05:31:44.598Z,101805
2023-01-29T05:37:35.295Z,101804
2023-01-29T05:43:27.426Z,101790
2023-01-29T05:49:18.003Z,101786
2023-01-29T05:55:05.735Z,101773
2023-01-29T06:00:56.284Z,101775
2023-01-29T06:06:46.124Z,101781
2023-01-29T06:12:36.003Z,101770
2023-01-29T06:18:26.047Z,101766
2023-01-29T06:24:16.600Z,101787
2023-01-29T06:30:07.184Z,101784
2023-01-29T06:35:58.166Z,101782
2023-01-29T06:41:48.975Z,101783
2023-01-29T06:47:38.518Z,101788
2023-01-29T06:53:29.225Z,101786
2023-01-29T06:59:20.397Z,101782
2023-01-29T07:05:12.228Z,101805
2023-01-29T07:11:02.737Z,101825
2023-01-29T07:16:53.332Z,101836
2023-01-29T07:22:43.371Z,101841
2023-01-29T07:28:37.447Z,101830
2023-01-29T07:34:28.483Z,101821
2023-01-29T07:40:20.338Z,101813
2023-01-29T07:47:28.501Z,101824
2023-01-29T07:53:23.120Z,101825
2023-01-29T07:59:21.816Z,101835
2023-01-29T08:05:34.264Z,101830
2023-01-29T08:12:09.871Z,101825
2023-01-29T08:18:02.985Z,101826
2023-01-29T08:24:13.584Z,101828
2023-01-29T08:30:40.919Z,101820
2023-01-29T08:36:34.321Z,101819
2023-01-29T08:42:26.400Z,101829
2023-01-29T08:48:20.242Z,101823
2023-01-29T08:54:40.130Z,101835
2023-01-29T09:00:35.110Z,101822
2023-01-29T09:06:30.343Z,101830
2023-01-29T09:12:29.413Z,101830
2023-01-29T09:24:51.467Z,101833
2023-01-29T09:37:17.553Z,101822
2023-01-29T09:43:44.063Z,101832
2023-01-29T09:49:49.050Z,101806
2023-01-29T09:55:41.408Z,101796
2023-01-29T10:01:33.625Z,101788
2023-01-29T10:07:37.236Z,101775
2023-01-29T10:13:44.444Z,101772
2023-01-29T10:19:58.863Z,101773
2023-01-29T10:26:15.306Z,101754
2023-01-29T10:32:24.332Z,101743
2023-01-29T10:38:20.736Z,101737
2023-01-29T10:44:27.208Z,101734
2023-01-29T10:50:39.813Z,101729
2023-01-29T11:02:51.611Z,101707
2023-01-29T11:09:00.852Z,101709
2023-01-29T11:15:05.510Z,101701
2023-01-29T11:21:01.519Z,101686
2023-01-29T11:39:55.591Z,101654
2023-01-29T11:45:57.893Z,101648
2023-01-29T11:52:09.070Z,101636
2023-01-29T11:58:08.654Z,101626
2023-01-29T12:10:20.214Z,101594
2023-01-29T12:16:38.498Z,101587
2023-01-29T12:22:36.525Z,101577
2023-01-29T12:28:27.792Z,101573
2023-01-29T12:34:17.833Z,101579
2023-01-29T12:40:11.356Z,101571
2023-01-29T12:46:03.325Z,101560
2023-01-29T12:51:54.436Z,101546
2023-01-29T12:57:45.307Z,101539
2023-01-29T13:03:35.665Z,101517
2023-01-29T13:09:28.659Z,101497
2023-01-29T13:15:19.259Z,101479
2023-01-29T13:21:15.414Z,101477
2023-01-29T13:27:06.831Z,101478
2023-01-29T13:33:02.770Z,101477
2023-01-29T13:39:06.126Z,101461
2023-01-29T13:44:58.577Z,101455
2023-01-29T13:50:49.760Z,101455
2023-01-29T13:56:40.440Z,101441
2023-01-29T14:02:33.854Z,101426
2023-01-29T14:08:25.867Z,101420
2023-01-29T14:14:17.493Z,101412
2023-01-29T14:20:11.767Z,101392
2023-01-29T14:26:02.815Z,101391
2023-01-29T14:31:53.373Z,101385
2023-01-29T14:38:55.532Z,101379
2023-01-29T14:44:44.059Z,101386
2023-01-29T14:50:34.478Z,101404
2023-01-29T14:56:25.823Z,101403
2023-01-29T15:02:23.979Z,101406
2023-01-29T15:08:16.943Z,101412
2023-01-29T15:14:09.018Z,101409
2023-01-29T15:19:58.726Z,101408
2023-01-29T15:25:49.938Z,101413
2023-01-29T15:31:42.250Z,101410
2023-01-29T15:37:35.611Z,101414
2023-01-29T15:43:28.441Z,101417
2023-01-29T15:49:19.232Z,101407
2023-01-29T15:55:08.328Z,101406
2023-01-29T16:00:57.281Z,101402
2023-01-29T16:06:47.038Z,101411
2023-01-29T16:12:35.518Z,101418
2023-01-29T16:18:24.037Z,101402
2023-01-29T16:24:12.809Z,101404
2023-01-29T16:31:10.912Z,101402
2023-01-29T16:36:58.461Z,101403
2023-01-29T16:42:47.324Z,101406
2023-01-29T16:48:35.917Z,101402
2023-01-29T16:54:24.743Z,101398
2023-01-29T17:00:13.509Z,101401
2023-01-29T17:06:02.072Z,101399
2023-01-29T17:11:51.018Z,101402
2023-01-29T17:17:39.920Z,101396
2023-01-29T17:23:29.588Z,101394
2023-01-29T17:29:19.882Z,101400
2023-01-29T17:35:08.713Z,101412
2023-01-29T17:40:57.831Z,101418
2023-01-29T17:46:46.806Z,101406
2023-01-29T17:52:35.478Z,101407
2023-01-29T17:58:24.102Z,101395
2023-01-29T18:04:12.792Z,101380
2023-01-29T18:10:01.976Z,101355
2023-01-29T18:15:51.336Z,101347
2023-01-29T18:21:41.339Z,101342
2023-01-29T18:27:31.533Z,101336
2023-01-29T18:33:21.771Z,101326
2023-01-29T18:39:12.859Z,101320
2023-01-29T18:45:03.390Z,101310
2023-01-29T18:50:53.179Z,101311
2023-01-29T18:58:36.653Z,101310
2023-01-29T19:04:22.907Z,101308
2023-01-29T19:10:11.026Z,101296
2023-01-29T19:15:59.180Z,101280
2023-01-29T19:21:47.247Z,101272
2023-01-29T19:27:35.382Z,101263
2023-01-29T19:33:25.033Z,101245
2023-01-29T19:39:13.465Z,101241
2023-01-29T19:45:02.237Z,101228
2023-01-29T19:50:52.065Z,101230
2023-01-29T19:56:46.482Z,101217
2023-01-29T20:02:38.965Z,101216
2023-01-29T20:08:30.011Z,101195
2023-01-29T20:14:20.507Z,101193
2023-01-29T20:20:10.609Z,101191
2023-01-29T20:26:03.345Z,101188
2023-01-29T20:31:53.843Z,101176
2023-01-29T20:37:46.369Z,101171
2023-01-29T20:43:36.361Z,101158
2023-01-29T20:49:33.188Z,101156
2023-01-29T20:55:23.578Z,101138
2023-01-29T21:01:15.258Z,101128
2023-01-29T21:07:06.321Z,101102
2023-01-29T21:12:57.178Z,101100
2023-01-29T21:18:48.046Z,101094
2023-01-29T21:24:39.766Z,101097
2023-01-29T21:30:29.808Z,101094
2023-01-29T21:36:20.060Z,101083
2023-01-29T21:42:11.233Z,101076
2023-01-29T21:48:03.228Z,101082
2023-01-29T21:53:53.338Z,101057
2023-01-29T21:59:43.429Z,101064
2023-01-29T22:05:39.913Z,101068
2023-01-29T22:11:29.910Z,101047
2023-01-29T22:17:20.781Z,101042
2023-01-29T22:23:09.312Z,101032
2023-01-29T22:28:59.653Z,101048
2023-01-29T22:34:50.044Z,101061
2023-01-29T22:40:39.851Z,101063
2023-01-29T22:46:30.707Z,101063
2023-01-29T22:52:21.741Z,101049
2023-01-29T22:58:12.830Z,101044
2023-01-29T23:04:02.514Z,101051
2023-01-29T23:09:53.424Z,101022
2023-01-29T23:15:44.911Z,101018
2023-01-29T23:21:35.407Z,101018
2023-01-29T23:27:26.137Z,101011
2023-01-29T23:33:16.745Z,101012
2023-01-29T23:39:07.486Z,100981
2023-01-29T23:44:58.165Z,100966
2023-01-29T23:50:56.437Z,100951
2023-01-29T23:56:46.732Z,100931
